createdAt,value
2019-02-06T00:01:12.928Z,12.73
2019-02-06T00:03:52.803Z,12.90
2019-02-06T00:06:32.878Z,12.28
2019-02-06T00:09:14.416Z,12.58
2019-02-06T00:11:42.254Z,11.68
2019-02-06T00:14:29.295Z,11.43
2019-02-06T00:17:37.378Z,11.45
2019-02-06T00:20:17.631Z,12.35
2019-02-06T00:22:58.067Z,11.10
2019-02-06T00:25:38.034Z,10.90
2019-02-06T00:28:18.248Z,12.65
2019-02-06T00:30:58.474Z,11.95
2019-02-06T00:33:39.261Z,11.78
2019-02-06T00:36:19.327Z,10.45
2019-02-06T00:38:59.221Z,11.85
2019-02-06T00:41:39.616Z,12.45
2019-02-06T00:44:19.678Z,11.43
2019-02-06T00:46:59.909Z,12.13
2019-02-06T00:49:39.677Z,11.12
2019-02-06T00:52:19.647Z,10.98
2019-02-06T00:55:00.051Z,12.95
2019-02-06T00:57:41.079Z,12.20
2019-02-06T01:00:21.868Z,11.48
2019-02-06T01:03:02.141Z,13.10
2019-02-06T01:05:42.345Z,12.98
2019-02-06T01:08:22.040Z,12.85
2019-02-06T01:11:02.282Z,13.68
2019-02-06T01:13:41.930Z,16.35
2019-02-06T01:16:22.363Z,15.83
2019-02-06T01:19:02.344Z,15.20
2019-02-06T01:21:42.461Z,15.58
2019-02-06T01:24:22.860Z,15.05
2019-02-06T01:27:02.763Z,14.47
2019-02-06T01:29:42.724Z,13.68
2019-02-06T01:32:22.942Z,14.35
2019-02-06T01:35:03.642Z,12.33
2019-02-06T01:37:44.473Z,13.35
2019-02-06T01:40:24.600Z,13.35
2019-02-06T01:43:04.460Z,12.85
2019-02-06T01:45:44.935Z,12.10
2019-02-06T01:48:23.196Z,11.80
2019-02-06T01:51:10.169Z,13.10
2019-02-06T01:53:49.992Z,12.15
2019-02-06T01:56:29.833Z,13.75
2019-02-06T01:59:09.915Z,12.40
2019-02-06T02:01:50.254Z,14.25
2019-02-06T02:04:29.972Z,14.55
2019-02-06T02:07:10.194Z,15.40
2019-02-06T02:09:49.984Z,14.58
2019-02-06T02:12:30.590Z,14.55
2019-02-06T02:15:10.524Z,15.10
2019-02-06T02:17:50.804Z,14.07
2019-02-06T02:20:30.620Z,16.25
2019-02-06T02:23:10.934Z,17.80
2019-02-06T02:25:50.646Z,15.10
2019-02-06T02:28:30.633Z,13.55
2019-02-06T02:31:10.880Z,13.25
2019-02-06T02:33:51.389Z,12.03
2019-02-06T02:36:31.373Z,11.10
2019-02-06T02:39:12.110Z,10.88
2019-02-06T02:41:52.151Z,11.03
2019-02-06T02:44:32.314Z,10.70
2019-02-06T02:47:12.638Z,11.35
2019-02-06T02:49:52.291Z,10.72
2019-02-06T02:52:32.438Z,11.43
2019-02-06T02:55:12.401Z,10.25
2019-02-06T02:57:52.294Z,10.28
2019-02-06T03:00:51.741Z,9.55
2019-02-06T03:03:51.812Z,9.48
2019-02-06T03:06:32.516Z,11.03
2019-02-06T03:09:12.667Z,10.53
2019-02-06T03:11:52.897Z,10.75
2019-02-06T03:14:33.207Z,10.85
2019-02-06T03:17:13.258Z,10.88
2019-02-06T03:19:53.308Z,10.25
2019-02-06T03:22:33.289Z,10.80
2019-02-06T03:25:13.491Z,10.68
2019-02-06T03:27:53.426Z,10.53
2019-02-06T03:30:31.936Z,10.53
2019-02-06T03:33:18.876Z,11.78
2019-02-06T03:35:58.624Z,11.00
2019-02-06T03:38:38.606Z,10.32
2019-02-06T03:41:18.665Z,12.10
2019-02-06T03:43:58.612Z,11.88
2019-02-06T03:46:38.866Z,12.63
2019-02-06T03:49:18.928Z,12.60
2019-02-06T03:51:59.068Z,12.35
2019-02-06T03:54:39.263Z,12.90
2019-02-06T03:57:19.733Z,12.78
2019-02-06T04:00:00.326Z,11.97
2019-02-06T04:02:40.897Z,11.80
2019-02-06T04:05:21.129Z,10.35
2019-02-06T04:08:00.713Z,10.93
2019-02-06T04:10:40.795Z,11.15
2019-02-06T04:13:20.624Z,11.12
2019-02-06T04:16:00.859Z,11.97
2019-02-06T04:18:40.969Z,10.45
2019-02-06T04:21:21.013Z,10.18
2019-02-06T04:24:00.769Z,10.72
2019-02-06T04:26:41.003Z,11.25
2019-02-06T04:29:20.990Z,11.12
2019-02-06T04:32:01.134Z,11.20
2019-02-06T04:34:41.370Z,10.28
2019-02-06T04:37:21.432Z,11.05
2019-02-06T04:40:01.290Z,11.10
2019-02-06T04:42:41.505Z,10.78
2019-02-06T04:45:21.490Z,10.10
2019-02-06T04:48:01.764Z,9.38
2019-02-06T04:50:43.134Z,10.70
2019-02-06T04:53:23.371Z,11.90
2019-02-06T04:56:03.542Z,10.60
2019-02-06T04:58:43.409Z,10.95
2019-02-06T05:01:23.831Z,11.90
2019-02-06T05:04:03.834Z,11.35
2019-02-06T05:06:43.800Z,10.98
2019-02-06T05:09:23.836Z,11.83
2019-02-06T05:12:03.792Z,11.60
2019-02-06T05:14:43.725Z,13.72
2019-02-06T05:17:24.028Z,14.98
2019-02-06T05:20:03.753Z,12.70
2019-02-06T05:22:43.922Z,12.82
2019-02-06T05:25:23.811Z,13.10
2019-02-06T05:28:03.934Z,14.15
2019-02-06T05:30:44.082Z,14.43
2019-02-06T05:33:24.073Z,14.68
2019-02-06T05:36:03.938Z,15.30
2019-02-06T05:38:43.619Z,13.10
2019-02-06T05:41:23.613Z,15.75
2019-02-06T05:44:03.657Z,15.23
2019-02-06T05:46:43.616Z,13.62
2019-02-06T05:49:23.375Z,13.08
2019-02-06T05:52:03.711Z,13.13
2019-02-06T05:54:43.794Z,13.55
2019-02-06T05:57:23.834Z,11.75
2019-02-06T06:00:03.977Z,13.00
2019-02-06T06:02:43.870Z,11.88
2019-02-06T06:05:23.707Z,12.40
2019-02-06T06:08:04.291Z,13.10
2019-02-06T06:10:44.757Z,13.05
2019-02-06T06:13:25.054Z,11.55
2019-02-06T06:16:04.779Z,13.88
2019-02-06T06:18:45.197Z,13.20
2019-02-06T06:21:24.837Z,11.60
2019-02-06T06:24:04.961Z,11.28
2019-02-06T06:26:44.872Z,11.65
2019-02-06T06:29:24.862Z,10.25
2019-02-06T06:32:05.309Z,10.48
2019-02-06T06:34:45.492Z,10.82
2019-02-06T06:37:25.596Z,11.35
2019-02-06T06:40:05.477Z,12.40
2019-02-06T06:42:45.817Z,12.82
2019-02-06T06:45:26.598Z,13.08
2019-02-06T06:48:06.250Z,12.93
2019-02-06T06:50:46.340Z,11.95
2019-02-06T06:53:26.591Z,11.57
2019-02-06T06:56:06.582Z,11.40
2019-02-06T06:58:46.870Z,12.40
2019-02-06T07:01:26.650Z,11.30
2019-02-06T07:04:06.795Z,11.43
2019-02-06T07:06:47.045Z,12.05
2019-02-06T07:09:27.172Z,11.75
2019-02-06T07:12:07.443Z,11.43
2019-02-06T07:14:47.152Z,10.60
2019-02-06T07:17:27.046Z,13.93
2019-02-06T07:20:07.176Z,11.33
2019-02-06T07:22:47.568Z,14.33
2019-02-06T07:25:28.796Z,12.80
2019-02-06T07:28:08.752Z,14.45
2019-02-06T07:30:48.844Z,12.18
2019-02-06T07:33:29.026Z,15.83
2019-02-06T07:36:09.078Z,15.43
2019-02-06T07:38:49.316Z,13.62
2019-02-06T07:41:29.076Z,13.10
2019-02-06T07:44:09.016Z,12.18
2019-02-06T07:46:49.366Z,11.68
2019-02-06T07:49:29.684Z,12.10
2019-02-06T07:52:10.161Z,11.65
2019-02-06T07:54:50.399Z,11.40
2019-02-06T07:57:31.378Z,12.23
2019-02-06T08:00:12.225Z,14.58
2019-02-06T08:02:51.949Z,15.05
2019-02-06T08:05:32.325Z,17.80
2019-02-06T08:08:13.360Z,17.12
2019-02-06T08:10:53.459Z,17.25
2019-02-06T08:13:33.934Z,16.75
2019-02-06T08:16:14.773Z,16.30
2019-02-06T08:18:54.824Z,17.70
2019-02-06T08:21:34.383Z,18.23
2019-02-06T08:24:14.536Z,17.50
2019-02-06T08:26:54.644Z,16.65
2019-02-06T08:29:34.888Z,21.15
2019-02-06T08:32:16.197Z,22.00
2019-02-06T08:34:55.958Z,27.67
2019-02-06T08:37:36.064Z,20.82
2019-02-06T08:40:16.220Z,17.77
2019-02-06T08:42:56.699Z,17.00
2019-02-06T08:45:37.030Z,13.25
2019-02-06T08:48:16.711Z,12.68
2019-02-06T08:50:56.846Z,10.63
2019-02-06T08:53:36.742Z,9.23
2019-02-06T08:56:16.964Z,8.60
2019-02-06T08:58:57.334Z,10.72
2019-02-06T09:01:37.382Z,10.85
2019-02-06T09:04:17.482Z,9.20
2019-02-06T09:06:57.538Z,12.50
2019-02-06T09:09:38.861Z,13.25
2019-02-06T09:12:18.608Z,12.00
2019-02-06T09:14:58.984Z,9.28
2019-02-06T09:17:38.686Z,6.85
2019-02-06T09:20:18.932Z,7.33
2019-02-06T09:22:58.742Z,7.65
2019-02-06T09:25:39.265Z,8.23
2019-02-06T09:28:20.414Z,8.18
2019-02-06T09:31:06.933Z,7.15
2019-02-06T09:34:09.954Z,7.03
2019-02-06T09:36:49.960Z,8.18
2019-02-06T09:39:30.035Z,7.47
2019-02-06T09:42:10.313Z,6.60
2019-02-06T09:44:51.466Z,8.00
2019-02-06T09:47:31.704Z,8.48
2019-02-06T09:50:11.600Z,7.05
2019-02-06T09:52:51.759Z,8.40
2019-02-06T09:55:31.680Z,8.45
2019-02-06T09:58:11.734Z,7.65
2019-02-06T10:00:51.877Z,8.35
2019-02-06T10:03:31.370Z,9.05
2019-02-06T10:06:12.126Z,9.20
2019-02-06T10:08:52.088Z,10.28
2019-02-06T10:11:32.180Z,10.03
2019-02-06T10:14:12.241Z,10.70
2019-02-06T10:16:51.858Z,12.15
2019-02-06T10:19:32.082Z,11.48
2019-02-06T10:22:12.376Z,11.03
2019-02-06T10:24:52.200Z,12.23
2019-02-06T10:27:32.215Z,12.25
2019-02-06T10:30:12.468Z,12.90
2019-02-06T10:32:52.136Z,12.43
2019-02-06T10:35:32.148Z,15.28
2019-02-06T10:38:12.224Z,13.98
2019-02-06T10:40:52.596Z,14.07
2019-02-06T10:43:35.827Z,14.40
2019-02-06T10:46:18.161Z,14.75
2019-02-06T10:48:57.432Z,17.30
2019-02-06T10:51:37.512Z,15.95
2019-02-06T10:54:17.420Z,18.30
2019-02-06T10:56:44.923Z,15.45
2019-02-06T10:59:32.075Z,16.00
2019-02-06T11:02:11.635Z,16.55
2019-02-06T11:04:51.788Z,16.20
2019-02-06T11:07:32.094Z,17.92
2019-02-06T11:10:11.862Z,15.43
2019-02-06T11:12:51.791Z,15.83
2019-02-06T11:15:31.950Z,18.15
2019-02-06T11:18:11.924Z,16.23
2019-02-06T11:20:52.314Z,16.95
2019-02-06T11:23:32.283Z,15.23
2019-02-06T11:26:12.234Z,15.30
2019-02-06T11:28:52.188Z,16.67
2019-02-06T11:31:31.967Z,17.90
2019-02-06T11:34:12.124Z,19.10
2019-02-06T11:36:52.158Z,18.87
2019-02-06T11:39:32.320Z,20.65
2019-02-06T11:42:13.035Z,19.87
2019-02-06T11:44:53.933Z,20.92
2019-02-06T11:47:35.108Z,22.00
2019-02-06T11:50:15.734Z,22.98
2019-02-06T11:52:56.731Z,20.43
2019-02-06T11:55:37.572Z,22.42
2019-02-06T11:58:18.447Z,21.70
2019-02-06T12:03:58.991Z,26.55
2019-02-06T12:06:38.660Z,24.35
2019-02-06T12:09:18.669Z,23.95
2019-02-06T12:11:59.510Z,24.57
2019-02-06T12:14:40.052Z,25.82
2019-02-06T12:17:20.013Z,24.82
2019-02-06T12:20:00.698Z,25.62
2019-02-06T12:22:41.394Z,22.82
2019-02-06T12:25:21.242Z,25.30
2019-02-06T12:28:01.476Z,25.43
2019-02-06T12:30:41.730Z,24.95
2019-02-06T12:33:21.584Z,25.82
2019-02-06T12:36:02.234Z,26.90
2019-02-06T12:38:53.222Z,25.68
2019-02-06T12:41:25.048Z,25.10
2019-02-06T12:44:05.199Z,26.42
2019-02-06T12:46:45.358Z,25.20
2019-02-06T12:49:25.424Z,26.27
2019-02-06T12:52:05.616Z,26.10
2019-02-06T12:54:45.255Z,23.83
2019-02-06T12:57:36.029Z,25.35
2019-02-06T13:00:07.559Z,24.23
2019-02-06T13:02:47.618Z,23.87
2019-02-06T13:05:27.613Z,23.70
2019-02-06T13:08:07.461Z,25.30
2019-02-06T13:10:47.900Z,26.68
2019-02-06T13:13:28.809Z,26.30
2019-02-06T13:16:08.461Z,26.42
2019-02-06T13:18:48.808Z,26.65
2019-02-06T13:21:29.003Z,24.80
2019-02-06T13:24:08.951Z,25.35
2019-02-06T13:26:49.309Z,25.10
2019-02-06T13:29:29.378Z,24.90
2019-02-06T13:32:09.610Z,24.87
2019-02-06T13:34:50.820Z,26.07
2019-02-06T13:37:30.321Z,26.45
2019-02-06T13:40:10.492Z,25.55
2019-02-06T13:42:50.385Z,25.25
2019-02-06T13:45:30.825Z,27.90
2019-02-06T13:48:10.900Z,27.20
2019-02-06T13:50:50.690Z,25.80
2019-02-06T13:53:30.752Z,23.55
2019-02-06T13:56:10.751Z,26.00
2019-02-06T13:58:50.632Z,25.30
2019-02-06T14:01:30.789Z,25.10
2019-02-06T14:04:10.942Z,23.45
2019-02-06T14:06:51.383Z,25.27
2019-02-06T14:09:31.155Z,22.67
2019-02-06T14:12:13.422Z,23.30
2019-02-06T14:14:53.408Z,24.10
2019-02-06T14:17:33.473Z,22.47
2019-02-06T14:20:13.834Z,24.92
2019-02-06T14:22:53.479Z,24.37
2019-02-06T14:25:33.771Z,23.80
2019-02-06T14:28:14.381Z,22.83
2019-02-06T14:30:54.215Z,22.20
2019-02-06T14:33:34.644Z,21.70
2019-02-06T14:36:35.467Z,22.80
2019-02-06T14:39:41.902Z,21.67
2019-02-06T14:42:21.876Z,22.80
2019-02-06T14:45:01.925Z,21.10
2019-02-06T14:47:42.669Z,21.07
2019-02-06T14:50:22.683Z,25.50
2019-02-06T14:53:02.806Z,24.47
2019-02-06T14:55:43.691Z,25.50
2019-02-06T14:58:50.396Z,24.43
2019-02-06T15:01:57.562Z,23.83
2019-02-06T15:04:37.312Z,25.08
2019-02-06T15:07:17.431Z,26.12
2019-02-06T15:09:57.244Z,26.70
2019-02-06T15:12:37.440Z,25.30
2019-02-06T15:15:17.814Z,24.80
2019-02-06T15:17:58.356Z,26.12
2019-02-06T15:20:38.835Z,24.70
2019-02-06T15:23:18.788Z,29.18
2019-02-06T15:25:58.650Z,25.72
2019-02-06T15:28:38.906Z,24.25
2019-02-06T15:31:19.073Z,25.30
2019-02-06T15:33:59.472Z,24.25
2019-02-06T15:36:39.397Z,26.50
2019-02-06T15:39:19.401Z,23.40
2019-02-06T15:41:59.398Z,25.40
2019-02-06T15:44:39.243Z,25.45
2019-02-06T15:47:19.728Z,26.07
2019-02-06T15:49:59.298Z,25.32
2019-02-06T15:52:39.660Z,24.80
2019-02-06T15:55:20.676Z,25.47
2019-02-06T15:58:00.427Z,26.20
2019-02-06T16:00:40.848Z,26.97
2019-02-06T16:03:20.792Z,23.27
2019-02-06T16:06:11.323Z,25.45
2019-02-06T16:08:50.974Z,34.90
2019-02-06T16:11:41.657Z,60.47
2019-02-06T16:14:13.160Z,66.23
2019-02-06T16:16:53.058Z,41.53
2019-02-06T16:19:33.215Z,32.93
2019-02-06T16:22:13.667Z,25.13
2019-02-06T16:24:54.516Z,23.73
2019-02-06T16:27:34.797Z,23.07
2019-02-06T16:30:15.068Z,24.77
2019-02-06T16:32:55.042Z,23.75
2019-02-06T16:35:35.200Z,25.80
2019-02-06T16:38:15.364Z,25.43
2019-02-06T16:40:55.372Z,26.40
2019-02-06T16:43:36.456Z,30.20
2019-02-06T16:46:16.392Z,30.67
2019-02-06T16:48:56.590Z,30.68
2019-02-06T16:51:36.442Z,32.45
2019-02-06T16:54:16.857Z,38.53
2019-02-06T16:56:56.528Z,40.12
2019-02-06T16:59:36.708Z,36.70
2019-02-06T17:02:16.829Z,35.27
2019-02-06T17:04:57.906Z,31.77
2019-02-06T17:07:37.930Z,29.55
2019-02-06T17:10:17.732Z,26.85
2019-02-06T17:12:57.649Z,26.07
2019-02-06T17:15:38.304Z,27.35
2019-02-06T17:18:17.990Z,30.68
2019-02-06T17:20:57.882Z,32.23
2019-02-06T17:23:38.334Z,26.48
2019-02-06T17:26:18.721Z,29.10
2019-02-06T17:28:58.901Z,31.95
2019-02-06T17:31:39.024Z,30.37
2019-02-06T17:34:19.092Z,27.60
2019-02-06T17:36:59.368Z,31.15
2019-02-06T17:39:39.635Z,30.95
2019-02-06T17:42:19.574Z,29.18
2019-02-06T17:45:00.227Z,24.23
2019-02-06T17:47:39.926Z,26.00
2019-02-06T17:50:19.887Z,26.10
2019-02-06T17:52:59.911Z,25.17
2019-02-06T17:55:40.524Z,21.00
2019-02-06T17:58:20.977Z,20.68
2019-02-06T18:01:03.408Z,20.77
2019-02-06T18:03:43.714Z,22.13
2019-02-06T18:06:23.823Z,22.07
2019-02-06T18:09:03.940Z,23.15
2019-02-06T18:11:45.752Z,22.20
2019-02-06T18:14:26.451Z,22.77
2019-02-06T18:17:07.148Z,25.02
2019-02-06T18:19:48.099Z,26.25
2019-02-06T18:22:27.812Z,25.68
2019-02-06T18:25:07.694Z,21.75
2019-02-06T18:27:47.662Z,20.57
2019-02-06T18:30:27.582Z,24.05
2019-02-06T18:33:07.999Z,25.02
2019-02-06T18:35:47.828Z,29.75
2019-02-06T18:38:28.228Z,50.00
2019-02-06T18:41:08.156Z,51.20
2019-02-06T18:43:48.201Z,45.85
2019-02-06T18:46:28.161Z,42.43
2019-02-06T18:49:08.314Z,42.35
2019-02-06T18:51:48.519Z,41.10
2019-02-06T18:54:28.895Z,37.73
2019-02-06T18:57:08.923Z,36.83
2019-02-06T18:59:48.892Z,37.20
2019-02-06T19:04:37.645Z,25.50
2019-02-06T19:07:18.082Z,22.73
2019-02-06T19:09:57.815Z,21.65
2019-02-06T19:12:47.645Z,19.15
2019-02-06T19:15:20.227Z,21.25
2019-02-06T19:18:01.101Z,21.57
2019-02-06T19:20:41.405Z,21.60
2019-02-06T19:23:21.832Z,22.62
2019-02-06T19:26:01.878Z,21.80
2019-02-06T19:28:41.983Z,23.27
2019-02-06T19:31:22.272Z,23.67
2019-02-06T19:34:02.412Z,24.45
2019-02-06T19:36:42.342Z,27.48
2019-02-06T19:39:22.445Z,27.75
2019-02-06T19:42:02.333Z,35.10
2019-02-06T19:44:42.664Z,44.98
2019-02-06T19:47:22.672Z,44.27
2019-02-06T19:50:02.706Z,42.35
2019-02-06T19:52:42.844Z,39.67
2019-02-06T19:55:22.792Z,41.77
2019-02-06T19:58:02.839Z,40.38
2019-02-06T20:00:43.005Z,40.08
2019-02-06T20:03:23.088Z,31.60
2019-02-06T20:06:05.579Z,29.07
2019-02-06T20:08:45.142Z,27.13
2019-02-06T20:11:25.170Z,26.80
2019-02-06T20:14:05.016Z,27.02
2019-02-06T20:16:45.876Z,30.30
2019-02-06T20:19:26.433Z,31.10
2019-02-06T20:22:06.402Z,26.80
2019-02-06T20:24:46.524Z,26.10
2019-02-06T20:27:26.958Z,29.50
2019-02-06T20:30:07.121Z,34.73
2019-02-06T20:32:48.190Z,36.20
2019-02-06T20:35:27.680Z,33.78
2019-02-06T20:38:08.287Z,38.88
2019-02-06T20:40:47.928Z,38.40
2019-02-06T20:43:28.240Z,39.20
2019-02-06T20:46:08.365Z,34.65
2019-02-06T20:48:48.146Z,32.80
2019-02-06T20:51:28.113Z,36.03
2019-02-06T20:54:08.215Z,32.88
2019-02-06T20:56:48.439Z,33.83
2019-02-06T20:59:28.443Z,32.35
2019-02-06T21:02:08.520Z,31.42
2019-02-06T21:04:48.648Z,27.48
2019-02-06T21:07:28.616Z,27.07
2019-02-06T21:10:08.519Z,27.65
2019-02-06T21:12:48.956Z,26.77
2019-02-06T21:15:32.726Z,25.30
2019-02-06T21:18:11.770Z,25.55
2019-02-06T21:20:52.072Z,29.30
2019-02-06T21:23:31.866Z,33.35
2019-02-06T21:26:12.004Z,29.27
2019-02-06T21:28:52.133Z,29.57
2019-02-06T21:31:32.003Z,29.67
2019-02-06T21:34:12.090Z,27.00
2019-02-06T21:36:51.994Z,26.48
2019-02-06T21:39:32.302Z,27.20
2019-02-06T21:42:12.194Z,26.77
2019-02-06T21:44:52.536Z,27.20
2019-02-06T21:47:32.466Z,27.58
2019-02-06T21:50:12.408Z,26.50
2019-02-06T21:52:52.522Z,26.97
2019-02-06T21:55:32.623Z,26.20
2019-02-06T21:58:12.559Z,25.85
2019-02-06T22:00:53.037Z,27.45
2019-02-06T22:03:33.027Z,26.70
2019-02-06T22:06:13.108Z,27.35
2019-02-06T22:08:53.653Z,26.00
2019-02-06T22:11:33.710Z,25.70
2019-02-06T22:14:13.568Z,26.23
2019-02-06T22:16:53.701Z,27.55
2019-02-06T22:19:33.894Z,25.30
2019-02-06T22:22:14.023Z,25.60
2019-02-06T22:24:53.974Z,27.80
2019-02-06T22:27:34.125Z,27.02
2019-02-06T22:30:14.735Z,25.37
2019-02-06T22:32:54.503Z,26.75
2019-02-06T22:35:35.802Z,25.88
2019-02-06T22:38:15.670Z,28.12
2019-02-06T22:40:55.651Z,26.50
2019-02-06T22:43:35.902Z,24.60
2019-02-06T22:49:01.973Z,21.68
2019-02-06T22:51:42.717Z,20.35
2019-02-06T22:54:23.061Z,24.20
2019-02-06T22:57:02.869Z,23.45
2019-02-06T22:59:43.707Z,21.93
2019-02-06T23:02:23.984Z,21.75
2019-02-06T23:05:03.632Z,21.35
2019-02-06T23:07:46.206Z,21.20
2019-02-06T23:10:25.698Z,21.02
2019-02-06T23:13:05.964Z,22.50
2019-02-06T23:15:46.808Z,21.75
2019-02-06T23:18:26.877Z,20.27
2019-02-06T23:21:06.892Z,22.32
2019-02-06T23:23:46.898Z,22.32
2019-02-06T23:26:27.022Z,22.75
2019-02-06T23:29:07.230Z,20.72
2019-02-06T23:31:47.700Z,19.37
2019-02-06T23:34:27.642Z,19.05
2019-02-06T23:37:08.041Z,17.87
2019-02-06T23:39:49.926Z,18.45
2019-02-06T23:42:31.133Z,17.92
2019-02-06T23:45:11.373Z,16.52
2019-02-06T23:47:51.511Z,16.37
2019-02-06T23:50:31.883Z,17.73
2019-02-06T23:53:12.084Z,19.50
2019-02-06T23:55:52.946Z,22.40
2019-02-06T23:58:33.239Z,20.75
